San Francisco, California
Traffic Map
Current Weather Conditions
San Francisco, California
Broken Clouds
Broken Clouds
18°
Feels Like: 18°
Wind Chill: 18° Ceiling: 2400
Heat Index: 18° Visibility: 10mi
Dew Point: 13° Wind: 6mph
Humidity: 75% Direction: 180° (S)
Pressure: 29.87in Gusts: 0mph
Raw Report DataKSFO 311556Z 18005KT 10SM FEW017 BKN024 BKN070 18/13 A2987 RMK AO2 SLP113 T01780133
Traffic Incident Summary
Active as of:
Severity:
Category:
InformationThere was an issue retrieving the traffic information for this location. Please try a different location or try again shortly.
Advertisements
Track Severe Weather on mobile